sensor_id;sensor_type;location;lat;lon;timestamp;P1;durP1;ratioP1;P2;durP2;ratioP2
3423;SDS011;72707;50.120;8.500;2023-11-18T00:02:04;15.47;;;7.90;;
3423;SDS011;72707;50.120;8.500;2023-11-18T00:04:30;14.30;;;7.53;;
3423;SDS011;72707;50.120;8.500;2023-11-18T00:06:56;12.47;;;7.33;;
3423;SDS011;72707;50.120;8.500;2023-11-18T00:09:23;21.73;;;8.47;;
3423;SDS011;72707;50.120;8.500;2023-11-18T00:11:49;11.90;;;6.07;;
3423;SDS011;72707;50.120;8.500;2023-11-18T00:14:15;21.70;;;8.23;;
3423;SDS011;72707;50.120;8.500;2023-11-18T00:16:43;13.37;;;7.03;;
3423;SDS011;72707;50.120;8.500;2023-11-18T00:19:08;15.87;;;6.80;;
3423;SDS011;72707;50.120;8.500;2023-11-18T00:21:35;16.27;;;7.60;;
3423;SDS011;72707;50.120;8.500;2023-11-18T00:24:01;14.13;;;6.83;;
3423;SDS011;72707;50.120;8.500;2023-11-18T00:26:27;20.33;;;8.70;;
3423;SDS011;72707;50.120;8.500;2023-11-18T01:28:37;11.77;;;5.67;;
3423;SDS011;72707;50.120;8.500;2023-11-18T01:31:08;12.67;;;6.40;;
3423;SDS011;72707;50.120;8.500;2023-11-18T01:33:40;11.23;;;5.90;;
3423;SDS011;72707;50.120;8.500;2023-11-18T01:36:07;10.80;;;5.80;;
3423;SDS011;72707;50.120;8.500;2023-11-18T05:01:34;16.40;;;6.63;;
3423;SDS011;72707;50.120;8.500;2023-11-18T05:03:59;15.83;;;7.33;;
3423;SDS011;72707;50.120;8.500;2023-11-18T05:06:25;15.20;;;8.03;;
3423;SDS011;72707;50.120;8.500;2023-11-18T05:08:52;17.00;;;7.80;;
3423;SDS011;72707;50.120;8.500;2023-11-18T05:11:17;17.77;;;8.10;;
3423;SDS011;72707;50.120;8.500;2023-11-18T05:13:43;16.40;;;8.77;;
3423;SDS011;72707;50.120;8.500;2023-11-18T05:16:10;18.43;;;8.07;;
3423;SDS011;72707;50.120;8.500;2023-11-18T05:18:36;20.53;;;9.97;;
3423;SDS011;72707;50.120;8.500;2023-11-18T05:21:02;26.30;;;9.60;;
3423;SDS011;72707;50.120;8.500;2023-11-18T05:23:29;17.60;;;9.33;;
3423;SDS011;72707;50.120;8.500;2023-11-18T05:25:55;24.67;;;9.63;;
3423;SDS011;72707;50.120;8.500;2023-11-18T05:28:22;23.83;;;10.47;;
3423;SDS011;72707;50.120;8.500;2023-11-18T05:30:49;22.10;;;9.27;;
3423;SDS011;72707;50.120;8.500;2023-11-18T05:33:15;23.63;;;10.70;;
3423;SDS011;72707;50.120;8.500;2023-11-18T05:35:43;17.23;;;10.47;;
3423;SDS011;72707;50.120;8.500;2023-11-18T05:38:14;27.00;;;10.83;;
3423;SDS011;72707;50.120;8.500;2023-11-18T05:40:46;23.07;;;11.30;;
3423;SDS011;72707;50.120;8.500;2023-11-18T05:43:23;25.33;;;10.87;;
3423;SDS011;72707;50.120;8.500;2023-11-18T05:45:50;23.37;;;9.97;;
3423;SDS011;72707;50.120;8.500;2023-11-18T05:48:35;21.67;;;10.00;;
3423;SDS011;72707;50.120;8.500;2023-11-18T05:51:01;20.07;;;10.07;;
3423;SDS011;72707;50.120;8.500;2023-11-18T05:53:27;18.00;;;9.43;;
3423;SDS011;72707;50.120;8.500;2023-11-18T05:55:52;20.43;;;9.93;;
3423;SDS011;72707;50.120;8.500;2023-11-18T05:58:18;27.20;;;10.10;;
3423;SDS011;72707;50.120;8.500;2023-11-18T06:00:46;28.37;;;10.50;;
3423;SDS011;72707;50.120;8.500;2023-11-18T06:03:13;22.90;;;10.37;;
3423;SDS011;72707;50.120;8.500;2023-11-18T06:05:40;24.73;;;10.70;;
3423;SDS011;72707;50.120;8.500;2023-11-18T06:08:06;23.23;;;9.90;;
3423;SDS011;72707;50.120;8.500;2023-11-18T06:10:32;22.40;;;9.53;;
3423;SDS011;72707;50.120;8.500;2023-11-18T06:12:59;23.23;;;11.17;;
3423;SDS011;72707;50.120;8.500;2023-11-18T06:15:25;29.00;;;10.90;;
3423;SDS011;72707;50.120;8.500;2023-11-18T06:17:52;22.03;;;10.63;;
3423;SDS011;72707;50.120;8.500;2023-11-18T06:20:20;24.10;;;11.20;;
3423;SDS011;72707;50.120;8.500;2023-11-18T06:22:48;31.97;;;11.07;;
3423;SDS011;72707;50.120;8.500;2023-11-18T06:25:14;27.87;;;11.17;;
3423;SDS011;72707;50.120;8.500;2023-11-18T06:27:42;26.20;;;11.07;;
3423;SDS011;72707;50.120;8.500;2023-11-18T06:30:10;23.37;;;10.13;;
3423;SDS011;72707;50.120;8.500;2023-11-18T06:32:37;31.77;;;10.73;;
3423;SDS011;72707;50.120;8.500;2023-11-18T06:35:04;27.83;;;10.57;;
3423;SDS011;72707;50.120;8.500;2023-11-18T06:37:34;25.73;;;10.37;;
3423;SDS011;72707;50.120;8.500;2023-11-18T06:39:59;29.93;;;10.30;;
3423;SDS011;72707;50.120;8.500;2023-11-18T06:42:25;41.17;;;10.93;;
3423;SDS011;72707;50.120;8.500;2023-11-18T06:44:50;40.03;;;11.17;;
3423;SDS011;72707;50.120;8.500;2023-11-18T06:47:16;26.20;;;10.40;;
3423;SDS011;72707;50.120;8.500;2023-11-18T06:49:44;25.23;;;10.70;;
3423;SDS011;72707;50.120;8.500;2023-11-18T06:52:10;33.90;;;11.30;;
3423;SDS011;72707;50.120;8.500;2023-11-18T06:54:37;30.10;;;10.70;;
3423;SDS011;72707;50.120;8.500;2023-11-18T06:57:06;23.67;;;9.80;;
3423;SDS011;72707;50.120;8.500;2023-11-18T06:59:32;27.27;;;9.00;;
3423;SDS011;72707;50.120;8.500;2023-11-18T07:01:58;27.87;;;9.50;;
3423;SDS011;72707;50.120;8.500;2023-11-18T07:04:24;30.20;;;9.67;;
3423;SDS011;72707;50.120;8.500;2023-11-18T07:06:50;26.27;;;10.10;;
3423;SDS011;72707;50.120;8.500;2023-11-18T07:09:16;24.93;;;9.27;;
3423;SDS011;72707;50.120;8.500;2023-11-18T07:11:45;25.93;;;9.30;;
3423;SDS011;72707;50.120;8.500;2023-11-18T07:14:12;24.43;;;9.73;;
3423;SDS011;72707;50.120;8.500;2023-11-18T07:16:39;23.77;;;9.53;;
3423;SDS011;72707;50.120;8.500;2023-11-18T07:19:05;28.17;;;10.10;;
3423;SDS011;72707;50.120;8.500;2023-11-18T08:26:26;23.50;;;10.80;;
3423;SDS011;72707;50.120;8.500;2023-11-18T08:31:28;28.50;;;11.63;;
3423;SDS011;72707;50.120;8.500;2023-11-18T08:33:54;31.97;;;12.90;;
3423;SDS011;72707;50.120;8.500;2023-11-18T08:36:19;32.33;;;13.60;;
3423;SDS011;72707;50.120;8.500;2023-11-18T08:38:47;29.30;;;11.90;;
3423;SDS011;72707;50.120;8.500;2023-11-18T08:41:14;35.53;;;13.10;;
3423;SDS011;72707;50.120;8.500;2023-11-18T08:43:40;32.77;;;13.37;;
3423;SDS011;72707;50.120;8.500;2023-11-18T08:46:11;31.87;;;12.80;;
3423;SDS011;72707;50.120;8.500;2023-11-18T08:48:39;34.53;;;12.97;;
3423;SDS011;72707;50.120;8.500;2023-11-18T08:51:05;31.03;;;12.93;;
3423;SDS011;72707;50.120;8.500;2023-11-18T08:53:33;29.13;;;11.67;;
3423;SDS011;72707;50.120;8.500;2023-11-18T08:56:06;26.43;;;11.87;;
3423;SDS011;72707;50.120;8.500;2023-11-18T08:58:32;30.93;;;12.43;;
3423;SDS011;72707;50.120;8.500;2023-11-18T09:00:59;32.43;;;12.47;;
3423;SDS011;72707;50.120;8.500;2023-11-18T09:03:37;50.53;;;16.37;;
3423;SDS011;72707;50.120;8.500;2023-11-18T09:06:08;34.10;;;12.97;;
3423;SDS011;72707;50.120;8.500;2023-11-18T09:08:46;40.50;;;16.03;;
3423;SDS011;72707;50.120;8.500;2023-11-18T09:11:17;40.33;;;14.33;;
3423;SDS011;72707;50.120;8.500;2023-11-18T09:13:44;40.63;;;13.93;;
3423;SDS011;72707;50.120;8.500;2023-11-18T09:16:12;37.80;;;12.27;;
3423;SDS011;72707;50.120;8.500;2023-11-18T09:18:42;34.97;;;13.87;;
3423;SDS011;72707;50.120;8.500;2023-11-18T09:21:11;32.37;;;13.80;;
3423;SDS011;72707;50.120;8.500;2023-11-18T09:23:40;35.47;;;13.67;;
3423;SDS011;72707;50.120;8.500;2023-11-18T09:26:07;33.73;;;12.80;;
3423;SDS011;72707;50.120;8.500;2023-11-18T09:28:34;36.53;;;13.03;;
3423;SDS011;72707;50.120;8.500;2023-11-18T09:31:03;29.13;;;13.00;;
3423;SDS011;72707;50.120;8.500;2023-11-18T09:33:30;35.97;;;12.73;;
3423;SDS011;72707;50.120;8.500;2023-11-18T09:36:00;43.20;;;13.87;;
3423;SDS011;72707;50.120;8.500;2023-11-18T09:38:31;44.73;;;14.10;;
3423;SDS011;72707;50.120;8.500;2023-11-18T09:41:00;36.90;;;13.57;;
3423;SDS011;72707;50.120;8.500;2023-11-18T09:43:35;35.20;;;13.93;;
3423;SDS011;72707;50.120;8.500;2023-11-18T09:46:10;41.20;;;14.40;;
3423;SDS011;72707;50.120;8.500;2023-11-18T09:48:43;39.43;;;14.20;;
3423;SDS011;72707;50.120;8.500;2023-11-18T09:51:12;37.10;;;14.80;;
3423;SDS011;72707;50.120;8.500;2023-11-18T09:53:51;35.33;;;15.40;;
3423;SDS011;72707;50.120;8.500;2023-11-18T09:58:54;32.03;;;13.07;;
3423;SDS011;72707;50.120;8.500;2023-11-18T10:01:30;32.10;;;12.40;;
3423;SDS011;72707;50.120;8.500;2023-11-18T10:04:02;36.23;;;13.47;;
3423;SDS011;72707;50.120;8.500;2023-11-18T10:06:31;43.33;;;15.77;;
3423;SDS011;72707;50.120;8.500;2023-11-18T10:08:59;36.03;;;13.63;;
3423;SDS011;72707;50.120;8.500;2023-11-18T10:11:44;37.83;;;14.67;;
3423;SDS011;72707;50.120;8.500;2023-11-18T10:14:13;48.93;;;15.43;;
3423;SDS011;72707;50.120;8.500;2023-11-18T10:16:40;35.80;;;13.20;;
3423;SDS011;72707;50.120;8.500;2023-11-18T10:19:06;30.47;;;12.43;;
3423;SDS011;72707;50.120;8.500;2023-11-18T10:21:34;39.70;;;13.77;;
3423;SDS011;72707;50.120;8.500;2023-11-18T10:24:06;40.97;;;15.27;;
3423;SDS011;72707;50.120;8.500;2023-11-18T10:26:40;37.27;;;13.63;;
3423;SDS011;72707;50.120;8.500;2023-11-18T10:29:07;43.73;;;14.50;;
3423;SDS011;72707;50.120;8.500;2023-11-18T10:31:34;39.93;;;13.67;;
3423;SDS011;72707;50.120;8.500;2023-11-18T10:34:00;42.73;;;15.47;;
3423;SDS011;72707;50.120;8.500;2023-11-18T10:36:28;39.43;;;14.40;;
3423;SDS011;72707;50.120;8.500;2023-11-18T10:38:58;40.33;;;14.63;;
3423;SDS011;72707;50.120;8.500;2023-11-18T10:41:25;44.07;;;17.37;;
3423;SDS011;72707;50.120;8.500;2023-11-18T10:44:06;46.00;;;17.43;;
3423;SDS011;72707;50.120;8.500;2023-11-18T10:46:39;41.73;;;16.20;;
3423;SDS011;72707;50.120;8.500;2023-11-18T10:49:05;44.13;;;15.17;;
3423;SDS011;72707;50.120;8.500;2023-11-18T10:51:35;36.67;;;15.30;;
3423;SDS011;72707;50.120;8.500;2023-11-18T10:54:04;52.83;;;16.33;;
3423;SDS011;72707;50.120;8.500;2023-11-18T10:56:40;41.47;;;15.10;;
3423;SDS011;72707;50.120;8.500;2023-11-18T10:59:13;44.80;;;16.43;;
3423;SDS011;72707;50.120;8.500;2023-11-18T11:01:43;48.93;;;16.83;;
3423;SDS011;72707;50.120;8.500;2023-11-18T11:04:13;41.93;;;17.13;;
3423;SDS011;72707;50.120;8.500;2023-11-18T11:06:45;47.57;;;16.60;;
3423;SDS011;72707;50.120;8.500;2023-11-18T11:09:17;40.67;;;14.90;;
3423;SDS011;72707;50.120;8.500;2023-11-18T11:12:07;44.43;;;15.27;;
3423;SDS011;72707;50.120;8.500;2023-11-18T11:14:34;40.07;;;14.90;;
3423;SDS011;72707;50.120;8.500;2023-11-18T11:17:05;44.03;;;16.57;;
3423;SDS011;72707;50.120;8.500;2023-11-18T11:20:03;48.30;;;17.27;;
3423;SDS011;72707;50.120;8.500;2023-11-18T11:22:56;62.57;;;19.77;;
3423;SDS011;72707;50.120;8.500;2023-11-18T11:28:31;48.07;;;17.90;;
3423;SDS011;72707;50.120;8.500;2023-11-18T11:34:02;50.03;;;16.50;;
3423;SDS011;72707;50.120;8.500;2023-11-18T11:36:41;44.63;;;16.70;;
3423;SDS011;72707;50.120;8.500;2023-11-18T11:39:11;49.57;;;17.57;;
3423;SDS011;72707;50.120;8.500;2023-11-18T11:41:44;48.43;;;15.47;;
3423;SDS011;72707;50.120;8.500;2023-11-18T11:44:15;42.37;;;16.23;;
3423;SDS011;72707;50.120;8.500;2023-11-18T11:46:44;43.10;;;16.87;;
3423;SDS011;72707;50.120;8.500;2023-11-18T11:49:10;54.30;;;18.40;;
3423;SDS011;72707;50.120;8.500;2023-11-18T11:54:40;41.53;;;16.23;;
3423;SDS011;72707;50.120;8.500;2023-11-18T11:57:10;40.17;;;15.40;;
3423;SDS011;72707;50.120;8.500;2023-11-18T12:02:18;49.50;;;17.57;;
3423;SDS011;72707;50.120;8.500;2023-11-18T12:04:50;43.13;;;16.70;;
3423;SDS011;72707;50.120;8.500;2023-11-18T12:07:22;37.47;;;15.70;;
3423;SDS011;72707;50.120;8.500;2023-11-18T12:09:50;49.03;;;17.63;;
3423;SDS011;72707;50.120;8.500;2023-11-18T12:12:23;41.50;;;16.67;;
3423;SDS011;72707;50.120;8.500;2023-11-18T12:14:57;40.33;;;15.80;;
3423;SDS011;72707;50.120;8.500;2023-11-18T12:20:39;45.40;;;15.80;;
3423;SDS011;72707;50.120;8.500;2023-11-18T12:23:26;46.83;;;17.13;;
3423;SDS011;72707;50.120;8.500;2023-11-18T12:25:52;41.67;;;16.00;;
3423;SDS011;72707;50.120;8.500;2023-11-18T12:28:32;47.83;;;16.97;;
3423;SDS011;72707;50.120;8.500;2023-11-18T12:31:03;36.37;;;15.83;;
3423;SDS011;72707;50.120;8.500;2023-11-18T12:39:02;39.10;;;15.73;;
3423;SDS011;72707;50.120;8.500;2023-11-18T12:41:38;32.00;;;16.73;;
3423;SDS011;72707;50.120;8.500;2023-11-18T12:44:10;33.50;;;15.53;;
3423;SDS011;72707;50.120;8.500;2023-11-18T12:47:03;32.67;;;15.47;;
3423;SDS011;72707;50.120;8.500;2023-11-18T12:49:46;35.37;;;16.20;;
3423;SDS011;72707;50.120;8.500;2023-11-18T12:52:19;32.43;;;15.23;;
3423;SDS011;72707;50.120;8.500;2023-11-18T12:54:46;31.60;;;14.17;;
3423;SDS011;72707;50.120;8.500;2023-11-18T12:57:36;33.57;;;14.67;;
3423;SDS011;72707;50.120;8.500;2023-11-18T13:00:03;41.43;;;16.00;;
3423;SDS011;72707;50.120;8.500;2023-11-18T13:02:31;31.63;;;14.63;;
3423;SDS011;72707;50.120;8.500;2023-11-18T13:04:57;34.57;;;15.73;;
3423;SDS011;72707;50.120;8.500;2023-11-18T13:07:23;37.93;;;15.80;;
3423;SDS011;72707;50.120;8.500;2023-11-18T13:09:50;39.30;;;14.67;;
3423;SDS011;72707;50.120;8.500;2023-11-18T14:33:50;32.23;;;12.07;;
3423;SDS011;72707;50.120;8.500;2023-11-18T14:36:17;15.10;;;8.47;;
3423;SDS011;72707;50.120;8.500;2023-11-18T14:38:44;14.90;;;7.60;;
3423;SDS011;72707;50.120;8.500;2023-11-18T14:41:10;16.53;;;8.80;;
3423;SDS011;72707;50.120;8.500;2023-11-18T14:43:36;14.93;;;9.33;;
3423;SDS011;72707;50.120;8.500;2023-11-18T14:46:02;13.77;;;8.20;;
3423;SDS011;72707;50.120;8.500;2023-11-18T14:48:29;16.40;;;8.73;;
3423;SDS011;72707;50.120;8.500;2023-11-18T14:50:55;18.37;;;8.73;;
3423;SDS011;72707;50.120;8.500;2023-11-18T14:53:22;12.60;;;7.57;;
3423;SDS011;72707;50.120;8.500;2023-11-18T14:55:48;12.80;;;6.93;;
3423;SDS011;72707;50.120;8.500;2023-11-18T14:58:13;12.60;;;7.83;;
3423;SDS011;72707;50.120;8.500;2023-11-18T15:00:40;9.63;;;7.07;;
3423;SDS011;72707;50.120;8.500;2023-11-18T15:03:07;16.93;;;8.27;;
3423;SDS011;72707;50.120;8.500;2023-11-18T15:05:33;12.77;;;7.60;;
3423;SDS011;72707;50.120;8.500;2023-11-18T15:07:59;13.50;;;7.97;;
3423;SDS011;72707;50.120;8.500;2023-11-18T15:10:25;16.20;;;9.73;;
3423;SDS011;72707;50.120;8.500;2023-11-18T15:12:53;23.20;;;10.30;;
3423;SDS011;72707;50.120;8.500;2023-11-18T15:15:23;10.30;;;8.07;;
3423;SDS011;72707;50.120;8.500;2023-11-18T15:17:57;11.63;;;6.53;;
3423;SDS011;72707;50.120;8.500;2023-11-18T15:20:23;15.10;;;7.00;;
3423;SDS011;72707;50.120;8.500;2023-11-18T15:22:49;16.43;;;9.43;;
3423;SDS011;72707;50.120;8.500;2023-11-18T15:25:15;7.87;;;6.07;;
3423;SDS011;72707;50.120;8.500;2023-11-18T15:27:45;12.50;;;7.63;;
3423;SDS011;72707;50.120;8.500;2023-11-18T15:30:15;12.87;;;6.97;;
3423;SDS011;72707;50.120;8.500;2023-11-18T15:32:42;10.33;;;6.40;;
3423;SDS011;72707;50.120;8.500;2023-11-18T15:35:11;9.90;;;7.37;;
3423;SDS011;72707;50.120;8.500;2023-11-18T15:37:37;8.77;;;6.10;;
3423;SDS011;72707;50.120;8.500;2023-11-18T15:40:05;14.80;;;6.80;;
3423;SDS011;72707;50.120;8.500;2023-11-18T16:03:24;8.53;;;5.20;;
3423;SDS011;72707;50.120;8.500;2023-11-18T16:08:21;94.30;;;15.17;;
3423;SDS011;72707;50.120;8.500;2023-11-18T16:13:24;8.17;;;4.20;;
3423;SDS011;72707;50.120;8.500;2023-11-18T16:15:50;13.77;;;5.93;;
3423;SDS011;72707;50.120;8.500;2023-11-18T16:18:15;12.93;;;5.83;;
3423;SDS011;72707;50.120;8.500;2023-11-18T16:20:41;11.50;;;6.30;;
3423;SDS011;72707;50.120;8.500;2023-11-18T16:23:07;8.57;;;5.03;;
3423;SDS011;72707;50.120;8.500;2023-11-18T16:30:44;10.50;;;4.90;;
3423;SDS011;72707;50.120;8.500;2023-11-18T16:33:10;7.13;;;4.50;;
3423;SDS011;72707;50.120;8.500;2023-11-18T16:35:36;10.63;;;4.80;;
3423;SDS011;72707;50.120;8.500;2023-11-18T16:38:01;7.10;;;4.27;;
3423;SDS011;72707;50.120;8.500;2023-11-18T16:40:27;7.87;;;4.30;;
3423;SDS011;72707;50.120;8.500;2023-11-18T16:48:05;12.57;;;5.10;;
3423;SDS011;72707;50.120;8.500;2023-11-18T17:03:28;9.07;;;4.07;;
3423;SDS011;72707;50.120;8.500;2023-11-18T17:05:56;17.93;;;6.37;;
3423;SDS011;72707;50.120;8.500;2023-11-18T17:18:46;8.43;;;4.17;;
3423;SDS011;72707;50.120;8.500;2023-11-18T17:21:11;10.63;;;5.13;;
3423;SDS011;72707;50.120;8.500;2023-11-18T17:23:37;4.50;;;3.20;;
3423;SDS011;72707;50.120;8.500;2023-11-18T17:26:06;10.77;;;6.20;;
3423;SDS011;72707;50.120;8.500;2023-11-18T17:31:09;6.50;;;3.77;;
3423;SDS011;72707;50.120;8.500;2023-11-18T17:33:36;10.97;;;4.13;;
3423;SDS011;72707;50.120;8.500;2023-11-18T17:38:35;13.40;;;7.30;;
3423;SDS011;72707;50.120;8.500;2023-11-18T17:41:01;12.83;;;5.03;;
3423;SDS011;72707;50.120;8.500;2023-11-18T17:43:27;10.90;;;5.67;;
3423;SDS011;72707;50.120;8.500;2023-11-18T18:53:13;10.17;;;4.43;;
3423;SDS011;72707;50.120;8.500;2023-11-18T20:05:46;72.13;;;14.63;;
3423;SDS011;72707;50.120;8.500;2023-11-18T20:08:12;13.73;;;6.53;;
3423;SDS011;72707;50.120;8.500;2023-11-18T20:13:11;7.63;;;5.77;;
3423;SDS011;72707;50.120;8.500;2023-11-18T20:15:37;9.63;;;5.90;;
3423;SDS011;72707;50.120;8.500;2023-11-18T20:18:03;7.73;;;5.20;;
3423;SDS011;72707;50.120;8.500;2023-11-18T20:20:35;8.33;;;5.57;;
3423;SDS011;72707;50.120;8.500;2023-11-18T20:23:01;7.53;;;5.40;;
3423;SDS011;72707;50.120;8.500;2023-11-18T20:25:28;7.93;;;6.20;;
3423;SDS011;72707;50.120;8.500;2023-11-18T20:27:55;10.13;;;6.97;;
3423;SDS011;72707;50.120;8.500;2023-11-18T20:30:21;9.00;;;6.43;;
3423;SDS011;72707;50.120;8.500;2023-11-18T20:32:47;12.97;;;8.03;;
3423;SDS011;72707;50.120;8.500;2023-11-18T20:35:13;13.67;;;8.40;;
3423;SDS011;72707;50.120;8.500;2023-11-18T21:06:12;16.07;;;9.23;;
3423;SDS011;72707;50.120;8.500;2023-11-18T21:08:38;96.67;;;17.87;;
3423;SDS011;72707;50.120;8.500;2023-11-18T21:11:04;14.13;;;7.70;;
3423;SDS011;72707;50.120;8.500;2023-11-18T21:13:41;82.13;;;17.33;;
3423;SDS011;72707;50.120;8.500;2023-11-18T21:23:44;8.17;;;6.70;;
3423;SDS011;72707;50.120;8.500;2023-11-18T21:28:47;12.93;;;7.10;;
3423;SDS011;72707;50.120;8.500;2023-11-18T21:31:13;12.70;;;7.50;;
3423;SDS011;72707;50.120;8.500;2023-11-18T21:33:41;9.20;;;6.63;;
3423;SDS011;72707;50.120;8.500;2023-11-18T21:36:07;12.17;;;7.20;;
3423;SDS011;72707;50.120;8.500;2023-11-18T21:38:33;10.00;;;6.60;;
3423;SDS011;72707;50.120;8.500;2023-11-18T21:40:59;8.10;;;6.43;;
3423;SDS011;72707;50.120;8.500;2023-11-18T21:43:25;12.73;;;6.97;;
3423;SDS011;72707;50.120;8.500;2023-11-18T21:45:51;13.70;;;6.73;;
3423;SDS011;72707;50.120;8.500;2023-11-18T21:48:17;12.67;;;6.83;;
3423;SDS011;72707;50.120;8.500;2023-11-18T21:50:46;8.10;;;6.27;;
3423;SDS011;72707;50.120;8.500;2023-11-18T21:53:12;9.37;;;6.47;;
3423;SDS011;72707;50.120;8.500;2023-11-18T21:55:38;12.53;;;7.13;;
3423;SDS011;72707;50.120;8.500;2023-11-18T21:58:03;13.77;;;7.20;;
3423;SDS011;72707;50.120;8.500;2023-11-18T22:00:30;14.90;;;7.83;;
3423;SDS011;72707;50.120;8.500;2023-11-18T22:02:56;11.30;;;7.37;;
3423;SDS011;72707;50.120;8.500;2023-11-18T22:05:22;10.57;;;7.10;;
3423;SDS011;72707;50.120;8.500;2023-11-18T22:07:48;10.33;;;5.83;;
3423;SDS011;72707;50.120;8.500;2023-11-18T22:10:15;10.40;;;7.83;;
3423;SDS011;72707;50.120;8.500;2023-11-18T22:12:42;11.03;;;6.90;;
3423;SDS011;72707;50.120;8.500;2023-11-18T22:15:08;10.73;;;6.43;;
3423;SDS011;72707;50.120;8.500;2023-11-18T22:17:35;7.73;;;6.40;;
3423;SDS011;72707;50.120;8.500;2023-11-18T22:20:03;12.47;;;6.83;;
3423;SDS011;72707;50.120;8.500;2023-11-18T22:22:30;9.47;;;6.30;;
3423;SDS011;72707;50.120;8.500;2023-11-18T22:24:56;9.90;;;6.67;;
3423;SDS011;72707;50.120;8.500;2023-11-18T22:27:22;8.30;;;6.20;;
3423;SDS011;72707;50.120;8.500;2023-11-18T22:29:48;10.87;;;5.13;;
3423;SDS011;72707;50.120;8.500;2023-11-18T22:32:14;11.30;;;6.83;;
3423;SDS011;72707;50.120;8.500;2023-11-18T22:34:42;13.57;;;7.83;;
3423;SDS011;72707;50.120;8.500;2023-11-18T22:37:08;8.37;;;6.37;;
3423;SDS011;72707;50.120;8.500;2023-11-18T22:39:33;10.07;;;6.40;;
3423;SDS011;72707;50.120;8.500;2023-11-18T22:42:03;14.67;;;7.10;;
3423;SDS011;72707;50.120;8.500;2023-11-18T22:44:32;10.33;;;7.67;;
3423;SDS011;72707;50.120;8.500;2023-11-18T23:06:09;8.77;;;5.70;;
3423;SDS011;72707;50.120;8.500;2023-11-18T23:11:20;8.77;;;6.30;;
3423;SDS011;72707;50.120;8.500;2023-11-18T23:16:23;12.90;;;7.27;;
3423;SDS011;72707;50.120;8.500;2023-11-18T23:18:49;13.00;;;7.43;;
3423;SDS011;72707;50.120;8.500;2023-11-18T23:21:17;10.97;;;6.93;;
3423;SDS011;72707;50.120;8.500;2023-11-18T23:28:49;11.30;;;7.13;;
3423;SDS011;72707;50.120;8.500;2023-11-18T23:31:15;7.00;;;5.87;;
3423;SDS011;72707;50.120;8.500;2023-11-18T23:33:41;9.70;;;7.03;;
3423;SDS011;72707;50.120;8.500;2023-11-18T23:36:07;7.83;;;6.60;;
3423;SDS011;72707;50.120;8.500;2023-11-18T23:38:35;13.83;;;7.00;;
3423;SDS011;72707;50.120;8.500;2023-11-18T23:43:43;7.80;;;6.70;;
3423;SDS011;72707;50.120;8.500;2023-11-18T23:48:45;102.43;;;18.03;;
3423;SDS011;72707;50.120;8.500;2023-11-18T23:51:11;17.13;;;7.53;;
3423;SDS011;72707;50.120;8.500;2023-11-18T23:53:41;13.00;;;6.73;;
3423;SDS011;72707;50.120;8.500;2023-11-18T23:56:07;9.70;;;6.57;;
